createdAt,value
2022-08-06T00:00:07.263Z,25.36
2022-08-06T00:02:31.161Z,25.28
2022-08-06T00:05:03.771Z,25.30
2022-08-06T00:07:45.357Z,25.27
2022-08-06T00:10:18.376Z,25.18
2022-08-06T00:12:47.968Z,25.15
2022-08-06T00:15:19.994Z,25.09
2022-08-06T00:18:07.040Z,25.02
2022-08-06T00:20:41.684Z,24.90
2022-08-06T00:23:16.382Z,24.82
2022-08-06T00:25:52.054Z,24.73
2022-08-06T00:28:30.500Z,24.65
2022-08-06T00:31:05.638Z,24.59
2022-08-06T00:33:44.531Z,24.50
2022-08-06T00:36:24.920Z,24.54
2022-08-06T00:38:53.720Z,24.47
2022-08-06T00:41:22.581Z,24.48
2022-08-06T00:43:50.204Z,24.48
2022-08-06T00:46:17.893Z,24.48
2022-08-06T00:48:54.022Z,24.49
2022-08-06T00:51:24.455Z,24.49
2022-08-06T00:54:10.569Z,24.47
2022-08-06T00:56:38.117Z,24.49
2022-08-06T00:59:10.819Z,24.45
2022-08-06T01:01:50.343Z,24.42
2022-08-06T01:04:19.888Z,24.41
2022-08-06T01:06:56.775Z,24.36
2022-08-06T01:09:27.228Z,24.35
2022-08-06T01:12:00.198Z,24.22
2022-08-06T01:14:38.341Z,24.18
2022-08-06T01:17:34.087Z,24.00
2022-08-06T01:22:01.500Z,23.90
2022-08-06T01:23:53.346Z,23.84
2022-08-06T01:26:37.336Z,23.72
2022-08-06T01:29:19.468Z,23.65
2022-08-06T01:32:06.194Z,23.59
2022-08-06T01:34:47.250Z,23.52
2022-08-06T01:37:38.824Z,23.45
2022-08-06T01:40:17.660Z,23.38
2022-08-06T01:42:54.328Z,23.28
2022-08-06T01:45:42.639Z,23.22
2022-08-06T01:48:28.868Z,23.03
2022-08-06T01:51:02.978Z,23.11
2022-08-06T01:54:05.278Z,23.00
2022-08-06T01:56:31.036Z,22.99
2022-08-06T01:59:04.559Z,22.94
2022-08-06T02:01:53.996Z,22.91
2022-08-06T02:04:30.251Z,22.80
2022-08-06T02:07:02.423Z,22.85
2022-08-06T02:09:37.821Z,22.88
2022-08-06T02:12:17.357Z,22.89
2022-08-06T02:15:00.660Z,22.87
2022-08-06T02:18:04.454Z,22.87
2022-08-06T02:20:53.089Z,22.88
2022-08-06T02:23:33.060Z,22.86
2022-08-06T02:26:04.537Z,22.89
2022-08-06T02:28:35.261Z,22.90
2022-08-06T02:31:06.816Z,22.93
2022-08-06T02:34:02.828Z,23.00
2022-08-06T02:36:51.267Z,22.92
2022-08-06T02:39:52.958Z,22.93
2022-08-06T02:42:40.198Z,22.97
2022-08-06T02:45:24.915Z,22.97
2022-08-06T02:48:22.246Z,22.96
2022-08-06T02:51:44.058Z,22.98
2022-08-06T02:54:13.301Z,22.90
2022-08-06T02:56:48.170Z,22.93
2022-08-06T02:59:25.055Z,22.91
2022-08-06T03:02:05.431Z,22.97
2022-08-06T03:04:37.349Z,22.96
2022-08-06T03:07:26.430Z,22.94
2022-08-06T03:09:56.536Z,22.96
2022-08-06T03:12:29.264Z,22.98
2022-08-06T03:15:07.633Z,22.88
2022-08-06T03:17:42.277Z,22.90
2022-08-06T03:20:19.648Z,22.97
2022-08-06T03:22:59.937Z,22.99
2022-08-06T03:25:31.579Z,23.04
2022-08-06T03:28:02.729Z,23.07
2022-08-06T03:30:34.035Z,23.09
2022-08-06T03:33:29.044Z,23.09
2022-08-06T03:36:01.922Z,23.14
2022-08-06T03:38:47.217Z,23.15
2022-08-06T03:41:23.041Z,23.22
2022-08-06T03:44:04.008Z,23.25
2022-08-06T03:46:59.777Z,23.21
2022-08-06T03:49:43.775Z,23.23
2022-08-06T03:52:22.996Z,23.33
2022-08-06T03:54:56.464Z,23.34
2022-08-06T03:57:40.407Z,23.35
2022-08-06T04:00:11.899Z,23.43
2022-08-06T04:02:50.969Z,23.41
2022-08-06T04:05:26.171Z,23.46
2022-08-06T04:07:58.473Z,23.45
2022-08-06T04:10:37.550Z,23.47
2022-08-06T04:13:40.419Z,23.59
2022-08-06T04:16:02.260Z,23.74
2022-08-06T04:18:42.163Z,23.81
2022-08-06T04:21:20.822Z,23.99
2022-08-06T04:24:05.382Z,24.16
2022-08-06T04:26:40.618Z,24.31
2022-08-06T04:29:12.527Z,24.44
2022-08-06T04:32:11.323Z,24.59
2022-08-06T04:34:33.088Z,24.65
2022-08-06T04:37:06.249Z,24.70
2022-08-06T04:39:50.034Z,24.69
2022-08-06T04:42:19.406Z,24.67
2022-08-06T04:44:59.273Z,24.55
2022-08-06T04:47:41.518Z,24.47
2022-08-06T04:50:11.582Z,24.40
2022-08-06T04:52:49.251Z,24.33
2022-08-06T04:55:24.990Z,24.44
2022-08-06T04:58:11.453Z,24.44
2022-08-06T05:01:01.030Z,24.46
2022-08-06T05:04:06.571Z,24.66
2022-08-06T05:06:47.116Z,24.72
2022-08-06T05:09:38.253Z,24.75
2022-08-06T05:12:53.326Z,24.72
2022-08-06T05:15:31.582Z,24.77
2022-08-06T05:19:15.785Z,24.86
2022-08-06T05:21:18.154Z,24.89
2022-08-06T05:23:54.591Z,24.87
2022-08-06T05:26:26.362Z,24.99
2022-08-06T05:28:54.353Z,25.05
2022-08-06T05:31:40.648Z,25.00
2022-08-06T05:34:12.822Z,25.04
2022-08-06T05:36:42.233Z,24.92
2022-08-06T05:39:51.412Z,24.82
2022-08-06T05:41:59.640Z,24.76
2022-08-06T05:44:29.714Z,24.79
2022-08-06T05:47:11.107Z,24.79
2022-08-06T05:49:58.465Z,24.84
2022-08-06T05:52:48.750Z,24.78
2022-08-06T05:55:42.979Z,24.79
2022-08-06T05:58:19.253Z,24.80
2022-08-06T06:00:48.142Z,24.84
2022-08-06T06:03:33.148Z,24.92
2022-08-06T06:06:17.467Z,25.08
2022-08-06T06:08:58.698Z,25.25
2022-08-06T06:11:54.847Z,25.30
2022-08-06T06:14:41.787Z,25.27
2022-08-06T06:17:39.011Z,25.54
2022-08-06T06:21:03.075Z,25.75
2022-08-06T06:23:33.888Z,26.12
2022-08-06T06:26:33.041Z,26.49
2022-08-06T06:30:02.142Z,26.73
2022-08-06T06:32:53.783Z,27.06
2022-08-06T06:35:36.896Z,27.21
2022-08-06T06:38:18.777Z,27.31
2022-08-06T06:41:20.529Z,27.11
2022-08-06T06:44:17.122Z,27.11
2022-08-06T06:47:04.767Z,26.65
2022-08-06T06:50:01.332Z,26.17
2022-08-06T06:52:39.987Z,26.06
2022-08-06T06:55:27.089Z,25.98
2022-08-06T06:58:27.046Z,26.15
2022-08-06T07:01:14.581Z,26.19
2022-08-06T07:03:48.805Z,26.23
2022-08-06T07:06:31.576Z,26.13
2022-08-06T07:09:14.886Z,26.18
2022-08-06T07:12:02.872Z,26.00
2022-08-06T07:14:36.301Z,25.72
2022-08-06T07:17:45.583Z,25.58
2022-08-06T07:19:57.799Z,25.59
2022-08-06T07:22:27.993Z,25.65
2022-08-06T07:25:01.917Z,25.79
2022-08-06T07:27:44.949Z,25.87
2022-08-06T07:30:21.225Z,25.81
2022-08-06T07:32:53.503Z,25.55
2022-08-06T07:35:21.748Z,25.45
2022-08-06T07:38:00.988Z,25.28
2022-08-06T07:40:52.794Z,24.93
2022-08-06T07:43:35.049Z,24.66
2022-08-06T07:46:07.680Z,24.31
2022-08-06T07:48:52.388Z,24.13
2022-08-06T07:51:34.450Z,23.80
2022-08-06T07:54:09.359Z,23.67
2022-08-06T07:57:00.458Z,23.54
2022-08-06T07:59:31.267Z,23.36
2022-08-06T08:02:02.531Z,23.23
2022-08-06T08:04:52.112Z,23.30
2022-08-06T08:07:37.983Z,23.18
2022-08-06T08:10:15.492Z,23.14
2022-08-06T08:12:45.269Z,23.07
2022-08-06T08:15:23.222Z,22.98
2022-08-06T08:17:57.687Z,22.79
2022-08-06T08:20:36.469Z,22.65
2022-08-06T08:23:08.503Z,22.64
2022-08-06T08:25:53.194Z,22.50
2022-08-06T08:28:22.145Z,22.50
2022-08-06T08:30:50.587Z,22.47
2022-08-06T08:33:21.023Z,22.37
2022-08-06T08:36:00.299Z,22.35
2022-08-06T08:38:34.950Z,22.21
2022-08-06T08:41:22.155Z,22.08
2022-08-06T08:44:03.816Z,22.09
2022-08-06T08:46:37.930Z,22.02
2022-08-06T08:49:26.277Z,22.08
2022-08-06T08:51:56.763Z,22.04
2022-08-06T08:54:28.625Z,22.10
2022-08-06T08:57:11.133Z,22.15
2022-08-06T08:59:56.919Z,22.19
2022-08-06T09:02:28.610Z,22.17
2022-08-06T09:04:59.415Z,22.29
2022-08-06T09:07:36.803Z,22.34
2022-08-06T09:10:09.317Z,22.42
2022-08-06T09:12:45.732Z,22.57
2022-08-06T09:15:19.401Z,22.66
2022-08-06T09:18:26.469Z,22.80
2022-08-06T09:20:37.803Z,22.97
2022-08-06T09:23:19.150Z,23.07
2022-08-06T09:25:58.838Z,23.16
2022-08-06T09:28:46.802Z,23.42
2022-08-06T09:31:22.005Z,23.34
2022-08-06T09:34:29.260Z,23.19
2022-08-06T09:36:56.974Z,23.32
2022-08-06T09:39:46.562Z,23.22
2022-08-06T09:42:48.147Z,23.27
2022-08-06T09:45:42.260Z,23.18
2022-08-06T09:48:17.347Z,23.13
2022-08-06T09:50:51.355Z,23.13
2022-08-06T09:53:21.710Z,23.10
2022-08-06T09:55:53.161Z,22.98
2022-08-06T09:58:37.784Z,22.77
2022-08-06T10:01:23.393Z,22.79
2022-08-06T10:04:03.396Z,22.80
2022-08-06T10:06:39.875Z,22.89
2022-08-06T10:09:21.041Z,22.82
2022-08-06T10:12:01.611Z,22.82
2022-08-06T10:14:33.640Z,22.78
2022-08-06T10:17:15.527Z,22.80
2022-08-06T10:20:09.690Z,22.79
2022-08-06T10:22:50.085Z,22.70
2022-08-06T10:25:29.568Z,22.65
2022-08-06T10:28:01.586Z,22.58
2022-08-06T10:30:35.761Z,22.52
2022-08-06T10:33:18.348Z,22.40
2022-08-06T10:35:59.022Z,22.30
2022-08-06T10:38:38.687Z,22.35
2022-08-06T10:41:59.924Z,22.32
2022-08-06T10:44:07.067Z,22.31
2022-08-06T10:46:36.406Z,22.10
2022-08-06T10:50:25.294Z,22.19
2022-08-06T10:51:58.995Z,22.24
2022-08-06T10:54:28.200Z,22.18
2022-08-06T10:56:56.933Z,22.34
2022-08-06T10:59:40.965Z,22.39
2022-08-06T11:02:36.112Z,22.31
2022-08-06T11:05:17.915Z,22.30
2022-08-06T11:08:19.679Z,22.22
2022-08-06T11:11:29.905Z,22.12
2022-08-06T11:14:14.836Z,22.12
2022-08-06T11:17:00.647Z,21.89
2022-08-06T11:19:58.139Z,21.79
2022-08-06T11:22:54.157Z,21.78
2022-08-06T11:25:44.073Z,21.76
2022-08-06T11:28:15.612Z,21.78
2022-08-06T11:30:51.701Z,21.70
2022-08-06T11:33:42.935Z,21.65
2022-08-06T11:36:26.061Z,21.68
2022-08-06T11:38:59.179Z,21.66
2022-08-06T11:41:57.020Z,21.68
2022-08-06T11:45:08.144Z,21.71
2022-08-06T11:48:26.830Z,21.80
2022-08-06T11:50:55.635Z,21.89
2022-08-06T11:53:52.405Z,21.91
2022-08-06T11:56:25.545Z,21.97
2022-08-06T11:59:16.170Z,21.98
2022-08-06T12:01:47.797Z,22.22
2022-08-06T12:04:36.325Z,22.38
2022-08-06T12:07:37.257Z,22.58
2022-08-06T12:10:07.735Z,22.68
2022-08-06T12:12:46.796Z,22.56
2022-08-06T12:15:20.134Z,22.52
2022-08-06T12:18:19.038Z,22.51
2022-08-06T12:20:49.432Z,22.58
2022-08-06T12:23:53.991Z,22.61
2022-08-06T12:26:13.658Z,22.71
2022-08-06T12:28:44.071Z,23.00
2022-08-06T12:31:36.274Z,23.29
2022-08-06T12:33:59.709Z,23.32
2022-08-06T12:36:35.364Z,23.21
2022-08-06T12:39:19.377Z,23.29
2022-08-06T12:41:47.583Z,23.19
2022-08-06T12:44:20.225Z,23.22
2022-08-06T12:47:13.952Z,23.22
2022-08-06T12:49:43.723Z,23.17
2022-08-06T12:52:30.108Z,22.96
2022-08-06T12:54:58.015Z,22.79
2022-08-06T12:57:58.758Z,22.95
2022-08-06T13:00:16.937Z,23.06
2022-08-06T13:02:46.538Z,23.12
2022-08-06T13:05:15.809Z,23.12
2022-08-06T13:07:53.834Z,23.08
2022-08-06T13:10:35.354Z,23.02
2022-08-06T13:14:12.409Z,22.89
2022-08-06T13:16:06.159Z,22.75
2022-08-06T13:18:41.992Z,22.64
2022-08-06T13:21:21.136Z,22.45
2022-08-06T13:23:55.819Z,22.35
2022-08-06T13:26:29.490Z,22.26
2022-08-06T13:30:32.047Z,22.25
2022-08-06T13:32:27.712Z,22.15
2022-08-06T13:35:17.778Z,22.15
2022-08-06T13:37:57.395Z,22.36
2022-08-06T13:40:51.717Z,22.53
2022-08-06T13:43:55.852Z,22.51
2022-08-06T13:46:32.800Z,22.51
2022-08-06T13:49:12.249Z,22.59
2022-08-06T13:51:48.770Z,22.56
2022-08-06T13:54:28.247Z,22.57
2022-08-06T13:56:59.953Z,22.54
2022-08-06T13:59:40.599Z,22.60
2022-08-06T14:02:12.475Z,22.86
2022-08-06T14:04:40.706Z,23.05
2022-08-06T14:07:08.427Z,23.31
2022-08-06T14:09:41.169Z,23.61
2022-08-06T14:12:29.238Z,23.83
2022-08-06T14:14:59.214Z,23.87
2022-08-06T14:17:34.054Z,23.86
2022-08-06T14:20:17.619Z,23.87
2022-08-06T14:22:48.182Z,23.91
2022-08-06T14:25:17.299Z,23.97
2022-08-06T14:27:45.110Z,24.19
2022-08-06T14:30:26.367Z,24.38
2022-08-06T14:33:11.207Z,24.45
2022-08-06T14:35:51.582Z,24.45
2022-08-06T14:38:32.749Z,24.58
2022-08-06T14:41:52.271Z,24.77
2022-08-06T14:44:29.895Z,24.97
2022-08-06T14:46:59.369Z,25.08
2022-08-06T14:49:33.313Z,25.12
2022-08-06T14:52:20.182Z,25.32
2022-08-06T14:54:55.887Z,25.61
2022-08-06T14:58:03.609Z,26.01
2022-08-06T15:00:21.864Z,26.13
2022-08-06T15:02:55.910Z,26.11
2022-08-06T15:05:42.721Z,26.05
2022-08-06T15:08:11.250Z,26.06
2022-08-06T15:10:40.267Z,25.94
2022-08-06T15:13:07.754Z,25.66
2022-08-06T15:15:46.785Z,25.68
2022-08-06T15:18:40.405Z,25.63
2022-08-06T15:21:10.163Z,25.35
2022-08-06T15:23:54.026Z,25.15
2022-08-06T15:26:42.273Z,25.02
2022-08-06T15:29:15.562Z,25.00
2022-08-06T15:31:45.647Z,25.09
2022-08-06T15:34:19.642Z,25.05
2022-08-06T15:37:02.154Z,24.75
2022-08-06T15:39:53.553Z,24.39
2022-08-06T15:42:24.376Z,24.23
2022-08-06T15:44:54.008Z,24.12
2022-08-06T15:47:31.570Z,24.29
2022-08-06T15:50:05.072Z,24.44
2022-08-06T15:52:42.611Z,24.46
2022-08-06T15:55:16.558Z,24.44
2022-08-06T15:58:05.342Z,24.42
2022-08-06T16:00:44.173Z,24.37
2022-08-06T16:03:27.742Z,24.37
2022-08-06T16:06:09.654Z,24.32
2022-08-06T16:08:43.717Z,24.19
2022-08-06T16:11:15.314Z,24.16
2022-08-06T16:13:53.681Z,24.04
2022-08-06T16:16:27.414Z,24.02
2022-08-06T16:19:02.544Z,24.03
2022-08-06T16:21:33.836Z,23.96
2022-08-06T16:24:03.909Z,24.00
2022-08-06T16:26:40.652Z,23.93
2022-08-06T16:29:12.391Z,23.89
2022-08-06T16:31:47.480Z,23.91
2022-08-06T16:34:23.124Z,23.93
2022-08-06T16:36:53.081Z,23.89
2022-08-06T16:42:10.407Z,23.77
2022-08-06T16:54:11.640Z,23.54
2022-08-06T16:55:52.077Z,23.45
2022-08-06T16:58:35.275Z,23.36
2022-08-06T17:04:00.651Z,23.34
2022-08-06T17:06:31.100Z,23.23
2022-08-06T17:09:02.263Z,23.18
2022-08-06T17:11:57.541Z,23.09
2022-08-06T17:14:36.204Z,23.00
2022-08-06T17:17:08.571Z,22.97
2022-08-06T17:19:38.237Z,22.92
2022-08-06T17:22:09.281Z,22.89
2022-08-06T17:24:42.538Z,22.90
2022-08-06T17:27:16.124Z,22.90
2022-08-06T17:29:48.981Z,22.90
2022-08-06T17:35:14.903Z,22.82
2022-08-06T17:37:46.113Z,22.83
2022-08-06T17:40:19.675Z,22.79
2022-08-06T17:43:23.004Z,22.74
2022-08-06T17:46:02.608Z,22.73
2022-08-06T17:48:48.359Z,22.69
2022-08-06T17:51:21.314Z,22.66
2022-08-06T17:53:53.986Z,22.62
2022-08-06T17:56:29.137Z,22.63
2022-08-06T17:59:17.705Z,22.62
2022-08-06T18:01:51.063Z,22.60
2022-08-06T18:04:29.983Z,22.57
2022-08-06T18:07:12.214Z,22.58
2022-08-06T18:10:09.083Z,22.55
2022-08-06T18:12:49.312Z,22.54
2022-08-06T18:15:22.715Z,22.53
2022-08-06T18:18:03.874Z,22.55
2022-08-06T18:20:38.351Z,22.54
2022-08-06T18:23:21.574Z,22.52
2022-08-06T18:25:57.615Z,22.50
2022-08-06T18:28:39.973Z,22.50
2022-08-06T18:31:20.085Z,22.51
2022-08-06T18:33:53.517Z,22.50
2022-08-06T18:36:32.974Z,22.46
2022-08-06T18:39:01.706Z,22.42
2022-08-06T18:41:32.948Z,22.40
2022-08-06T18:44:01.736Z,22.38
2022-08-06T18:46:56.176Z,22.37
2022-08-06T18:49:26.747Z,22.32
2022-08-06T18:52:01.314Z,22.32
2022-08-06T18:54:30.154Z,22.29
2022-08-06T18:56:58.149Z,22.28
2022-08-06T18:59:51.159Z,22.25
2022-08-06T19:02:23.179Z,22.18
2022-08-06T19:04:55.334Z,22.17
2022-08-06T19:07:27.011Z,22.15
2022-08-06T19:10:14.756Z,22.15
2022-08-06T19:12:43.163Z,22.13
2022-08-06T19:15:12.446Z,22.11
2022-08-06T19:18:10.143Z,22.10
2022-08-06T19:20:31.008Z,22.08
2022-08-06T19:23:02.681Z,22.07
2022-08-06T19:25:52.036Z,22.07
2022-08-06T19:28:35.902Z,22.05
2022-08-06T19:31:11.451Z,22.04
2022-08-06T19:33:40.021Z,22.04
2022-08-06T19:36:30.920Z,22.03
2022-08-06T19:38:55.624Z,21.93
2022-08-06T19:42:00.353Z,21.88
2022-08-06T19:44:26.019Z,21.87
2022-08-06T19:47:00.570Z,21.88
2022-08-06T19:49:40.666Z,21.90
2022-08-06T19:52:09.705Z,21.95
2022-08-06T19:54:41.545Z,22.00
2022-08-06T19:57:13.554Z,22.01
2022-08-06T20:00:47.771Z,22.02
2022-08-06T20:02:31.645Z,21.96
2022-08-06T20:04:59.229Z,21.95
2022-08-06T20:07:28.040Z,21.93
2022-08-06T20:10:00.946Z,21.95
2022-08-06T20:12:35.332Z,21.92
2022-08-06T20:15:14.020Z,21.92
2022-08-06T20:17:49.321Z,21.83
2022-08-06T20:20:28.729Z,21.76
2022-08-06T20:23:08.665Z,21.79
2022-08-06T20:26:10.574Z,21.79
2022-08-06T20:29:08.672Z,21.81
2022-08-06T20:31:21.014Z,21.82
2022-08-06T20:33:57.947Z,21.79
2022-08-06T20:36:29.739Z,21.77
2022-08-06T20:38:58.872Z,21.75
2022-08-06T20:42:03.419Z,21.70
2022-08-06T20:44:19.686Z,21.62
2022-08-06T20:47:21.600Z,21.53
2022-08-06T20:50:02.360Z,21.41
2022-08-06T20:52:24.820Z,21.32
2022-08-06T20:54:56.594Z,21.30
2022-08-06T20:57:28.460Z,21.32
2022-08-06T20:59:59.302Z,21.30
2022-08-06T21:02:32.451Z,21.32
2022-08-06T21:05:13.942Z,21.35
2022-08-06T21:07:56.744Z,21.34
2022-08-06T21:10:31.796Z,21.34
2022-08-06T21:13:02.721Z,21.31
2022-08-06T21:15:54.330Z,21.31
2022-08-06T21:18:24.058Z,21.30
2022-08-06T21:20:55.439Z,21.18
2022-08-06T21:23:41.950Z,21.12
2022-08-06T21:26:15.989Z,21.02
2022-08-06T21:28:54.298Z,20.95
2022-08-06T21:31:24.563Z,20.93
2022-08-06T21:33:54.350Z,20.90
2022-08-06T21:36:26.763Z,20.91
2022-08-06T21:38:59.085Z,20.89
2022-08-06T21:41:54.634Z,20.85
2022-08-06T21:44:24.610Z,20.79
2022-08-06T21:46:58.994Z,20.77
2022-08-06T21:50:00.033Z,20.67
2022-08-06T21:52:28.350Z,20.60
2022-08-06T21:55:05.461Z,20.57
2022-08-06T21:57:48.144Z,20.52
2022-08-06T22:00:40.025Z,20.43
2022-08-06T22:04:38.325Z,20.34
2022-08-06T22:06:22.534Z,20.26
2022-08-06T22:08:54.572Z,20.26
2022-08-06T22:12:37.513Z,20.22
2022-08-06T22:14:17.069Z,20.18
2022-08-06T22:16:54.318Z,20.12
2022-08-06T22:19:33.414Z,20.08
2022-08-06T22:22:07.692Z,20.07
2022-08-06T22:24:37.672Z,20.05
2022-08-06T22:27:12.611Z,19.96
2022-08-06T22:30:04.278Z,19.93
2022-08-06T22:32:36.344Z,19.90
2022-08-06T22:35:09.300Z,19.93
2022-08-06T22:38:17.024Z,19.97
2022-08-06T22:40:28.627Z,19.95
2022-08-06T22:43:01.385Z,20.00
2022-08-06T22:46:00.357Z,20.03
2022-08-06T22:48:35.602Z,20.06
2022-08-06T22:51:10.622Z,20.04
2022-08-06T22:54:28.483Z,19.97
2022-08-06T22:56:30.423Z,19.95
2022-08-06T22:59:31.576Z,19.99
2022-08-06T23:02:06.470Z,20.02
2022-08-06T23:04:41.213Z,20.03
2022-08-06T23:07:10.840Z,20.02
2022-08-06T23:09:41.194Z,20.01
2022-08-06T23:12:18.438Z,20.02
2022-08-06T23:14:55.050Z,19.99
2022-08-06T23:17:24.270Z,19.93
2022-08-06T23:19:57.079Z,19.82
2022-08-06T23:22:28.957Z,19.72
2022-08-06T23:25:58.172Z,19.60
2022-08-06T23:27:45.542Z,19.55
2022-08-06T23:30:20.216Z,19.53
2022-08-06T23:32:50.086Z,19.54
2022-08-06T23:35:36.693Z,19.53
2022-08-06T23:38:31.510Z,19.50
2022-08-06T23:40:58.926Z,19.48
2022-08-06T23:43:30.552Z,19.43
2022-08-06T23:46:03.678Z,19.40
2022-08-06T23:48:32.893Z,19.37
2022-08-06T23:51:05.429Z,19.26
2022-08-06T23:54:08.936Z,19.22
2022-08-06T23:56:26.606Z,19.16
2022-08-06T23:58:57.328Z,19.14
